sensor_id;sensor_type;location;lat;lon;timestamp;temperature;humidity
67196;DHT22;54122;53.538;49.366;2023-05-10T00:01:39;4.80;54.20
67196;DHT22;54122;53.538;49.366;2023-05-10T00:04:06;4.70;54.40
67196;DHT22;54122;53.538;49.366;2023-05-10T00:06:32;4.70;54.50
67196;DHT22;54122;53.538;49.366;2023-05-10T00:08:58;4.60;54.50
67196;DHT22;54122;53.538;49.366;2023-05-10T00:11:25;4.70;54.60
67196;DHT22;54122;53.538;49.366;2023-05-10T00:13:51;4.50;54.60
67196;DHT22;54122;53.538;49.366;2023-05-10T00:16:17;4.50;54.90
67196;DHT22;54122;53.538;49.366;2023-05-10T00:18:43;4.50;55.00
67196;DHT22;54122;53.538;49.366;2023-05-10T00:21:10;4.50;55.10
67196;DHT22;54122;53.538;49.366;2023-05-10T00:23:36;4.50;55.10
67196;DHT22;54122;53.538;49.366;2023-05-10T00:26:04;4.50;55.20
67196;DHT22;54122;53.538;49.366;2023-05-10T00:28:31;4.50;55.40
67196;DHT22;54122;53.538;49.366;2023-05-10T00:30:57;4.50;56.50
67196;DHT22;54122;53.538;49.366;2023-05-10T00:33:23;4.50;55.40
67196;DHT22;54122;53.538;49.366;2023-05-10T00:35:50;4.50;55.40
67196;DHT22;54122;53.538;49.366;2023-05-10T00:38:16;4.40;55.40
67196;DHT22;54122;53.538;49.366;2023-05-10T00:40:43;4.40;55.40
67196;DHT22;54122;53.538;49.366;2023-05-10T00:43:10;4.40;55.40
67196;DHT22;54122;53.538;49.366;2023-05-10T00:45:37;4.40;55.40
67196;DHT22;54122;53.538;49.366;2023-05-10T00:48:05;4.40;55.40
67196;DHT22;54122;53.538;49.366;2023-05-10T00:50:33;4.50;55.40
67196;DHT22;54122;53.538;49.366;2023-05-10T00:53:00;4.50;55.40
67196;DHT22;54122;53.538;49.366;2023-05-10T00:55:27;4.50;55.40
67196;DHT22;54122;53.538;49.366;2023-05-10T00:57:55;4.60;55.30
67196;DHT22;54122;53.538;49.366;2023-05-10T01:00:21;4.70;55.30
67196;DHT22;54122;53.538;49.366;2023-05-10T01:02:48;4.70;55.10
67196;DHT22;54122;53.538;49.366;2023-05-10T01:05:15;4.80;55.20
67196;DHT22;54122;53.538;49.366;2023-05-10T01:07:41;4.90;55.00
67196;DHT22;54122;53.538;49.366;2023-05-10T01:10:08;5.00;54.70
67196;DHT22;54122;53.538;49.366;2023-05-10T01:12:40;5.10;54.50
67196;DHT22;54122;53.538;49.366;2023-05-10T01:15:09;5.20;54.40
67196;DHT22;54122;53.538;49.366;2023-05-10T01:17:39;5.30;54.20
67196;DHT22;54122;53.538;49.366;2023-05-10T01:20:07;5.40;53.90
67196;DHT22;54122;53.538;49.366;2023-05-10T01:34:08;6.10;52.10
67196;DHT22;54122;53.538;49.366;2023-05-10T01:36:48;6.30;51.60
67196;DHT22;54122;53.538;49.366;2023-05-10T01:39:24;6.40;51.30
67196;DHT22;54122;53.538;49.366;2023-05-10T01:41:57;6.60;50.90
67196;DHT22;54122;53.538;49.366;2023-05-10T01:47:42;6.90;50.50
67196;DHT22;54122;53.538;49.366;2023-05-10T01:50:19;7.00;49.60
67196;DHT22;54122;53.538;49.366;2023-05-10T01:52:54;7.10;49.30
67196;DHT22;54122;53.538;49.366;2023-05-10T01:55:21;7.20;48.90
67196;DHT22;54122;53.538;49.366;2023-05-10T01:57:58;7.40;48.60
67196;DHT22;54122;53.538;49.366;2023-05-10T02:00:26;7.50;48.20
67196;DHT22;54122;53.538;49.366;2023-05-10T02:02:54;8.10;47.60
67196;DHT22;54122;53.538;49.366;2023-05-10T02:05:21;8.70;45.90
67196;DHT22;54122;53.538;49.366;2023-05-10T02:07:49;8.80;45.00
67196;DHT22;54122;53.538;49.366;2023-05-10T02:10:18;8.70;44.40
67196;DHT22;54122;53.538;49.366;2023-05-10T02:12:47;8.60;43.90
67196;DHT22;54122;53.538;49.366;2023-05-10T02:15:19;8.50;44.30
67196;DHT22;54122;53.538;49.366;2023-05-10T02:17:47;8.50;44.30
67196;DHT22;54122;53.538;49.366;2023-05-10T02:20:16;8.40;44.30
67196;DHT22;54122;53.538;49.366;2023-05-10T02:22:45;8.50;44.40
67196;DHT22;54122;53.538;49.366;2023-05-10T02:25:13;8.50;44.40
67196;DHT22;54122;53.538;49.366;2023-05-10T02:27:41;8.60;44.30
67196;DHT22;54122;53.538;49.366;2023-05-10T02:30:10;8.60;44.20
67196;DHT22;54122;53.538;49.366;2023-05-10T02:32:37;8.70;44.10
67196;DHT22;54122;53.538;49.366;2023-05-10T02:35:04;8.80;44.00
67196;DHT22;54122;53.538;49.366;2023-05-10T02:37:31;8.90;44.10
67196;DHT22;54122;53.538;49.366;2023-05-10T02:39:59;9.00;43.90
67196;DHT22;54122;53.538;49.366;2023-05-10T02:42:27;9.00;43.50
67196;DHT22;54122;53.538;49.366;2023-05-10T02:45:00;9.10;43.30
67196;DHT22;54122;53.538;49.366;2023-05-10T02:47:28;9.20;43.20
67196;DHT22;54122;53.538;49.366;2023-05-10T02:49:55;9.40;43.10
67196;DHT22;54122;53.538;49.366;2023-05-10T02:52:24;9.50;42.90
67196;DHT22;54122;53.538;49.366;2023-05-10T02:54:55;9.60;42.70
67196;DHT22;54122;53.538;49.366;2023-05-10T02:57:27;9.60;42.50
67196;DHT22;54122;53.538;49.366;2023-05-10T02:59:54;9.60;42.20
67196;DHT22;54122;53.538;49.366;2023-05-10T03:02:21;9.70;42.20
67196;DHT22;54122;53.538;49.366;2023-05-10T03:04:48;9.80;42.30
67196;DHT22;54122;53.538;49.366;2023-05-10T03:07:14;10.00;42.10
67196;DHT22;54122;53.538;49.366;2023-05-10T03:09:41;10.10;41.80
67196;DHT22;54122;53.538;49.366;2023-05-10T03:12:26;10.30;41.50
67196;DHT22;54122;53.538;49.366;2023-05-10T03:15:22;10.50;41.30
67196;DHT22;54122;53.538;49.366;2023-05-10T03:18:03;10.70;41.20
67196;DHT22;54122;53.538;49.366;2023-05-10T03:20:35;10.80;40.70
67196;DHT22;54122;53.538;49.366;2023-05-10T03:23:07;10.90;40.10
67196;DHT22;54122;53.538;49.366;2023-05-10T03:25:35;11.00;40.40
67196;DHT22;54122;53.538;49.366;2023-05-10T03:28:04;11.10;40.60
67196;DHT22;54122;53.538;49.366;2023-05-10T03:30:31;11.30;40.50
67196;DHT22;54122;53.538;49.366;2023-05-10T03:33:07;11.50;40.00
67196;DHT22;54122;53.538;49.366;2023-05-10T03:35:33;11.60;39.30
67196;DHT22;54122;53.538;49.366;2023-05-10T03:38:01;11.60;38.70
67196;DHT22;54122;53.538;49.366;2023-05-10T03:40:27;11.70;38.40
67196;DHT22;54122;53.538;49.366;2023-05-10T03:42:58;11.70;38.10
67196;DHT22;54122;53.538;49.366;2023-05-10T03:45:25;11.70;38.00
67196;DHT22;54122;53.538;49.366;2023-05-10T03:47:51;11.70;37.60
67196;DHT22;54122;53.538;49.366;2023-05-10T03:50:18;11.70;37.50
67196;DHT22;54122;53.538;49.366;2023-05-10T03:52:45;11.80;37.70
67196;DHT22;54122;53.538;49.366;2023-05-10T03:55:12;11.80;37.00
67196;DHT22;54122;53.538;49.366;2023-05-10T03:57:38;11.90;37.20
67196;DHT22;54122;53.538;49.366;2023-05-10T04:00:05;12.00;36.50
67196;DHT22;54122;53.538;49.366;2023-05-10T04:02:32;12.10;36.00
67196;DHT22;54122;53.538;49.366;2023-05-10T04:04:58;12.30;36.00
67196;DHT22;54122;53.538;49.366;2023-05-10T04:07:25;12.40;35.70
67196;DHT22;54122;53.538;49.366;2023-05-10T04:09:51;12.40;35.00
67196;DHT22;54122;53.538;49.366;2023-05-10T04:12:18;12.60;35.20
67196;DHT22;54122;53.538;49.366;2023-05-10T04:14:44;12.80;35.00
67196;DHT22;54122;53.538;49.366;2023-05-10T04:17:11;12.90;34.20
67196;DHT22;54122;53.538;49.366;2023-05-10T04:19:37;13.00;34.10
67196;DHT22;54122;53.538;49.366;2023-05-10T04:22:04;13.30;33.90
67196;DHT22;54122;53.538;49.366;2023-05-10T04:24:31;13.60;33.40
67196;DHT22;54122;53.538;49.366;2023-05-10T04:26:57;13.90;33.10
67196;DHT22;54122;53.538;49.366;2023-05-10T04:29:23;14.10;32.70
67196;DHT22;54122;53.538;49.366;2023-05-10T04:31:50;14.50;32.30
67196;DHT22;54122;53.538;49.366;2023-05-10T04:34:17;14.90;31.70
67196;DHT22;54122;53.538;49.366;2023-05-10T04:36:43;15.20;30.60
67196;DHT22;54122;53.538;49.366;2023-05-10T04:39:10;15.30;30.00
67196;DHT22;54122;53.538;49.366;2023-05-10T04:41:37;15.30;29.40
67196;DHT22;54122;53.538;49.366;2023-05-10T04:44:04;15.40;29.20
67196;DHT22;54122;53.538;49.366;2023-05-10T04:46:30;15.50;29.40
67196;DHT22;54122;53.538;49.366;2023-05-10T04:48:57;16.00;29.20
67196;DHT22;54122;53.538;49.366;2023-05-10T04:51:42;16.20;28.10
67196;DHT22;54122;53.538;49.366;2023-05-10T04:54:08;16.40;27.80
67196;DHT22;54122;53.538;49.366;2023-05-10T04:56:35;16.50;27.30
67196;DHT22;54122;53.538;49.366;2023-05-10T04:59:01;16.60;27.20
67196;DHT22;54122;53.538;49.366;2023-05-10T05:01:28;16.90;27.10
67196;DHT22;54122;53.538;49.366;2023-05-10T05:03:55;17.50;26.70
67196;DHT22;54122;53.538;49.366;2023-05-10T05:06:21;18.00;26.30
67196;DHT22;54122;53.538;49.366;2023-05-10T05:08:48;18.30;25.60
67196;DHT22;54122;53.538;49.366;2023-05-10T05:11:15;18.60;25.20
67196;DHT22;54122;53.538;49.366;2023-05-10T05:13:41;19.10;24.70
67196;DHT22;54122;53.538;49.366;2023-05-10T05:16:27;19.50;24.40
67196;DHT22;54122;53.538;49.366;2023-05-10T05:18:53;19.80;23.70
67196;DHT22;54122;53.538;49.366;2023-05-10T05:21:20;19.70;23.00
67196;DHT22;54122;53.538;49.366;2023-05-10T05:23:47;19.80;23.50
67196;DHT22;54122;53.538;49.366;2023-05-10T05:26:14;20.10;23.20
67196;DHT22;54122;53.538;49.366;2023-05-10T05:28:40;20.20;22.70
67196;DHT22;54122;53.538;49.366;2023-05-10T05:31:26;20.10;22.40
67196;DHT22;54122;53.538;49.366;2023-05-10T05:34:11;20.40;22.50
67196;DHT22;54122;53.538;49.366;2023-05-10T05:36:37;20.60;21.60
67196;DHT22;54122;53.538;49.366;2023-05-10T05:39:04;20.90;21.60
67196;DHT22;54122;53.538;49.366;2023-05-10T05:41:30;21.20;21.60
67196;DHT22;54122;53.538;49.366;2023-05-10T05:43:57;21.80;21.10
67196;DHT22;54122;53.538;49.366;2023-05-10T05:46:23;22.20;20.30
67196;DHT22;54122;53.538;49.366;2023-05-10T05:48:50;22.60;20.00
67196;DHT22;54122;53.538;49.366;2023-05-10T05:51:16;23.10;19.60
67196;DHT22;54122;53.538;49.366;2023-05-10T05:53:43;23.70;19.60
67196;DHT22;54122;53.538;49.366;2023-05-10T05:56:09;24.30;18.70
67196;DHT22;54122;53.538;49.366;2023-05-10T05:58:35;24.60;17.80
67196;DHT22;54122;53.538;49.366;2023-05-10T06:01:02;24.50;17.40
67196;DHT22;54122;53.538;49.366;2023-05-10T06:03:47;24.70;17.50
67196;DHT22;54122;53.538;49.366;2023-05-10T06:06:13;25.40;17.40
67196;DHT22;54122;53.538;49.366;2023-05-10T06:08:40;25.70;16.80
67196;DHT22;54122;53.538;49.366;2023-05-10T06:11:10;25.80;16.70
67196;DHT22;54122;53.538;49.366;2023-05-10T06:13:36;26.30;16.30
67196;DHT22;54122;53.538;49.366;2023-05-10T06:16:03;26.00;15.30
67196;DHT22;54122;53.538;49.366;2023-05-10T06:18:29;25.70;15.80
67196;DHT22;54122;53.538;49.366;2023-05-10T06:20:56;25.70;15.40
67196;DHT22;54122;53.538;49.366;2023-05-10T06:23:22;25.40;15.90
67196;DHT22;54122;53.538;49.366;2023-05-10T06:25:49;25.10;17.00
67196;DHT22;54122;53.538;49.366;2023-05-10T06:28:15;24.90;16.30
67196;DHT22;54122;53.538;49.366;2023-05-10T06:30:42;25.10;16.60
67196;DHT22;54122;53.538;49.366;2023-05-10T06:33:08;25.60;16.00
67196;DHT22;54122;53.538;49.366;2023-05-10T06:35:53;25.80;15.50
67196;DHT22;54122;53.538;49.366;2023-05-10T06:38:20;25.60;15.80
67196;DHT22;54122;53.538;49.366;2023-05-10T06:40:46;25.70;15.60
67196;DHT22;54122;53.538;49.366;2023-05-10T06:43:13;26.00;15.40
67196;DHT22;54122;53.538;49.366;2023-05-10T06:45:39;25.90;15.10
67196;DHT22;54122;53.538;49.366;2023-05-10T06:48:25;25.60;15.50
67196;DHT22;54122;53.538;49.366;2023-05-10T06:50:52;25.40;15.20
67196;DHT22;54122;53.538;49.366;2023-05-10T06:53:18;25.50;15.20
67196;DHT22;54122;53.538;49.366;2023-05-10T06:55:45;25.80;14.90
67196;DHT22;54122;53.538;49.366;2023-05-10T06:58:12;25.80;14.90
67196;DHT22;54122;53.538;49.366;2023-05-10T07:00:38;25.70;14.60
67196;DHT22;54122;53.538;49.366;2023-05-10T07:03:06;25.90;15.60
67196;DHT22;54122;53.538;49.366;2023-05-10T07:05:33;25.80;14.40
67196;DHT22;54122;53.538;49.366;2023-05-10T07:07:59;25.60;15.90
67196;DHT22;54122;53.538;49.366;2023-05-10T07:10:26;25.90;14.90
67196;DHT22;54122;53.538;49.366;2023-05-10T07:12:52;26.30;14.70
67196;DHT22;54122;53.538;49.366;2023-05-10T07:15:19;26.30;14.30
67196;DHT22;54122;53.538;49.366;2023-05-10T07:17:45;26.30;14.30
67196;DHT22;54122;53.538;49.366;2023-05-10T07:20:13;25.80;14.10
67196;DHT22;54122;53.538;49.366;2023-05-10T07:22:39;25.40;14.50
67196;DHT22;54122;53.538;49.366;2023-05-10T07:27:50;25.60;14.40
67196;DHT22;54122;53.538;49.366;2023-05-10T07:30:17;25.10;14.40
67196;DHT22;54122;53.538;49.366;2023-05-10T07:32:43;25.40;14.90
67196;DHT22;54122;53.538;49.366;2023-05-10T07:35:09;25.80;14.50
67196;DHT22;54122;53.538;49.366;2023-05-10T07:37:35;25.80;14.00
67196;DHT22;54122;53.538;49.366;2023-05-10T07:40:01;24.90;14.10
67196;DHT22;54122;53.538;49.366;2023-05-10T07:42:28;23.80;15.30
67196;DHT22;54122;53.538;49.366;2023-05-10T07:44:54;23.60;15.90
67196;DHT22;54122;53.538;49.366;2023-05-10T07:47:20;24.50;15.40
67196;DHT22;54122;53.538;49.366;2023-05-10T07:49:47;24.80;15.10
67196;DHT22;54122;53.538;49.366;2023-05-10T07:52:14;25.10;14.70
67196;DHT22;54122;53.538;49.366;2023-05-10T07:54:40;24.60;14.80
67196;DHT22;54122;53.538;49.366;2023-05-10T07:57:06;24.30;15.10
67196;DHT22;54122;53.538;49.366;2023-05-10T07:59:32;24.70;15.00
67196;DHT22;54122;53.538;49.366;2023-05-10T08:01:58;25.00;14.60
67196;DHT22;54122;53.538;49.366;2023-05-10T08:04:25;25.20;15.10
67196;DHT22;54122;53.538;49.366;2023-05-10T08:06:51;25.80;15.20
67196;DHT22;54122;53.538;49.366;2023-05-10T08:09:17;26.60;14.90
67196;DHT22;54122;53.538;49.366;2023-05-10T08:11:43;26.90;14.20
67196;DHT22;54122;53.538;49.366;2023-05-10T08:14:09;26.80;14.00
67196;DHT22;54122;53.538;49.366;2023-05-10T08:16:36;26.20;14.00
67196;DHT22;54122;53.538;49.366;2023-05-10T08:19:02;25.80;14.40
67196;DHT22;54122;53.538;49.366;2023-05-10T08:21:28;25.50;14.80
67196;DHT22;54122;53.538;49.366;2023-05-10T08:23:55;25.60;14.40
67196;DHT22;54122;53.538;49.366;2023-05-10T08:26:21;25.60;14.50
67196;DHT22;54122;53.538;49.366;2023-05-10T08:28:47;25.00;14.90
67196;DHT22;54122;53.538;49.366;2023-05-10T08:31:14;24.30;15.30
67196;DHT22;54122;53.538;49.366;2023-05-10T08:33:40;23.80;15.60
67196;DHT22;54122;53.538;49.366;2023-05-10T08:36:06;23.80;15.80
67196;DHT22;54122;53.538;49.366;2023-05-10T08:38:32;24.10;16.10
67196;DHT22;54122;53.538;49.366;2023-05-10T08:40:59;24.30;16.10
67196;DHT22;54122;53.538;49.366;2023-05-10T08:43:46;24.10;15.90
67196;DHT22;54122;53.538;49.366;2023-05-10T08:46:18;23.60;16.10
67196;DHT22;54122;53.538;49.366;2023-05-10T08:48:45;23.20;16.70
67196;DHT22;54122;53.538;49.366;2023-05-10T08:51:17;23.10;18.00
67196;DHT22;54122;53.538;49.366;2023-05-10T08:53:44;23.20;16.90
67196;DHT22;54122;53.538;49.366;2023-05-10T08:56:11;23.40;16.40
67196;DHT22;54122;53.538;49.366;2023-05-10T08:58:38;23.50;16.20
67196;DHT22;54122;53.538;49.366;2023-05-10T09:01:05;23.80;16.20
67196;DHT22;54122;53.538;49.366;2023-05-10T09:03:31;23.60;16.20
67196;DHT22;54122;53.538;49.366;2023-05-10T09:05:58;23.50;16.40
67196;DHT22;54122;53.538;49.366;2023-05-10T09:08:25;23.60;16.90
67196;DHT22;54122;53.538;49.366;2023-05-10T09:10:52;24.10;16.60
67196;DHT22;54122;53.538;49.366;2023-05-10T09:13:19;24.00;16.90
67196;DHT22;54122;53.538;49.366;2023-05-10T09:15:47;23.80;17.50
67196;DHT22;54122;53.538;49.366;2023-05-10T09:18:14;23.50;17.10
67196;DHT22;54122;53.538;49.366;2023-05-10T09:20:41;23.20;17.20
67196;DHT22;54122;53.538;49.366;2023-05-10T09:23:07;22.90;17.20
67196;DHT22;54122;53.538;49.366;2023-05-10T09:25:34;22.70;17.50
67196;DHT22;54122;53.538;49.366;2023-05-10T09:28:00;22.60;17.80
67196;DHT22;54122;53.538;49.366;2023-05-10T09:30:53;22.60;18.10
67196;DHT22;54122;53.538;49.366;2023-05-10T09:33:21;22.30;17.80
67196;DHT22;54122;53.538;49.366;2023-05-10T09:35:47;21.90;17.70
67196;DHT22;54122;53.538;49.366;2023-05-10T09:38:17;22.00;18.20
67196;DHT22;54122;53.538;49.366;2023-05-10T09:40:53;22.20;18.20
67196;DHT22;54122;53.538;49.366;2023-05-10T09:43:20;22.50;17.90
67196;DHT22;54122;53.538;49.366;2023-05-10T09:45:48;22.60;17.50
67196;DHT22;54122;53.538;49.366;2023-05-10T09:48:17;22.50;17.40
67196;DHT22;54122;53.538;49.366;2023-05-10T09:50:43;22.40;18.00
67196;DHT22;54122;53.538;49.366;2023-05-10T09:53:14;22.60;18.00
67196;DHT22;54122;53.538;49.366;2023-05-10T09:55:45;22.60;17.80
67196;DHT22;54122;53.538;49.366;2023-05-10T09:58:13;22.80;17.50
67196;DHT22;54122;53.538;49.366;2023-05-10T10:00:42;22.70;17.80
67196;DHT22;54122;53.538;49.366;2023-05-10T10:03:19;22.70;17.40
67196;DHT22;54122;53.538;49.366;2023-05-10T10:05:47;22.30;17.20
67196;DHT22;54122;53.538;49.366;2023-05-10T10:08:15;21.90;18.10
67196;DHT22;54122;53.538;49.366;2023-05-10T10:10:41;21.80;18.40
67196;DHT22;54122;53.538;49.366;2023-05-10T10:13:09;21.90;18.60
67196;DHT22;54122;53.538;49.366;2023-05-10T10:15:36;22.10;18.50
67196;DHT22;54122;53.538;49.366;2023-05-10T10:18:03;22.00;18.60
67196;DHT22;54122;53.538;49.366;2023-05-10T10:20:31;21.70;18.30
67196;DHT22;54122;53.538;49.366;2023-05-10T10:22:57;21.20;18.70
67196;DHT22;54122;53.538;49.366;2023-05-10T10:25:25;20.90;19.20
67196;DHT22;54122;53.538;49.366;2023-05-10T10:30:37;20.90;19.80
67196;DHT22;54122;53.538;49.366;2023-05-10T10:36:08;21.00;19.30
67196;DHT22;54122;53.538;49.366;2023-05-10T10:41:26;21.20;19.00
67196;DHT22;54122;53.538;49.366;2023-05-10T10:47:22;21.10;18.70
67196;DHT22;54122;53.538;49.366;2023-05-10T10:52:27;20.80;19.30
67196;DHT22;54122;53.538;49.366;2023-05-10T10:57:28;21.20;19.60
67196;DHT22;54122;53.538;49.366;2023-05-10T11:00:21;21.20;18.90
67196;DHT22;54122;53.538;49.366;2023-05-10T11:02:49;21.10;19.00
67196;DHT22;54122;53.538;49.366;2023-05-10T11:05:39;20.90;18.80
67196;DHT22;54122;53.538;49.366;2023-05-10T11:11:03;20.70;18.90
67196;DHT22;54122;53.538;49.366;2023-05-10T11:13:31;21.00;19.20
67196;DHT22;54122;53.538;49.366;2023-05-10T11:15:59;21.10;19.10
67196;DHT22;54122;53.538;49.366;2023-05-10T11:18:36;21.20;18.70
67196;DHT22;54122;53.538;49.366;2023-05-10T11:23:57;21.10;18.70
67196;DHT22;54122;53.538;49.366;2023-05-10T11:26:25;21.10;18.60
67196;DHT22;54122;53.538;49.366;2023-05-10T11:28:53;21.20;18.90
67196;DHT22;54122;53.538;49.366;2023-05-10T11:31:23;21.40;18.80
67196;DHT22;54122;53.538;49.366;2023-05-10T11:33:54;21.60;19.00
67196;DHT22;54122;53.538;49.366;2023-05-10T11:36:23;21.80;18.60
67196;DHT22;54122;53.538;49.366;2023-05-10T11:38:50;21.80;18.30
67196;DHT22;54122;53.538;49.366;2023-05-10T11:41:18;21.90;18.30
67196;DHT22;54122;53.538;49.366;2023-05-10T11:43:46;22.20;18.20
67196;DHT22;54122;53.538;49.366;2023-05-10T11:46:31;21.90;17.90
67196;DHT22;54122;53.538;49.366;2023-05-10T11:48:59;21.60;17.90
67196;DHT22;54122;53.538;49.366;2023-05-10T11:51:36;21.40;18.30
67196;DHT22;54122;53.538;49.366;2023-05-10T11:54:20;21.30;18.20
67196;DHT22;54122;53.538;49.366;2023-05-10T11:56:47;21.20;18.60
67196;DHT22;54122;53.538;49.366;2023-05-10T11:59:14;21.20;18.70
67196;DHT22;54122;53.538;49.366;2023-05-10T12:01:41;21.20;18.50
67196;DHT22;54122;53.538;49.366;2023-05-10T12:04:07;21.20;18.30
67196;DHT22;54122;53.538;49.366;2023-05-10T12:06:39;21.20;18.30
67196;DHT22;54122;53.538;49.366;2023-05-10T12:09:07;21.50;18.60
67196;DHT22;54122;53.538;49.366;2023-05-10T12:11:39;21.50;18.30
67196;DHT22;54122;53.538;49.366;2023-05-10T12:14:06;21.40;18.30
67196;DHT22;54122;53.538;49.366;2023-05-10T12:16:32;21.30;18.40
67196;DHT22;54122;53.538;49.366;2023-05-10T12:18:59;21.40;18.50
67196;DHT22;54122;53.538;49.366;2023-05-10T12:21:28;21.40;18.40
67196;DHT22;54122;53.538;49.366;2023-05-10T12:23:59;21.50;18.40
67196;DHT22;54122;53.538;49.366;2023-05-10T12:26:28;21.60;18.50
67196;DHT22;54122;53.538;49.366;2023-05-10T12:31:54;21.40;18.70
67196;DHT22;54122;53.538;49.366;2023-05-10T12:34:34;21.40;18.70
67196;DHT22;54122;53.538;49.366;2023-05-10T12:37:02;21.50;18.60
67196;DHT22;54122;53.538;49.366;2023-05-10T12:42:05;21.80;18.40
67196;DHT22;54122;53.538;49.366;2023-05-10T12:44:32;21.60;18.00
67196;DHT22;54122;53.538;49.366;2023-05-10T12:46:59;21.40;18.30
67196;DHT22;54122;53.538;49.366;2023-05-10T12:49:25;21.20;18.30
67196;DHT22;54122;53.538;49.366;2023-05-10T12:51:52;21.00;18.60
67196;DHT22;54122;53.538;49.366;2023-05-10T12:54:18;20.80;18.70
67196;DHT22;54122;53.538;49.366;2023-05-10T12:57:03;20.60;19.00
67196;DHT22;54122;53.538;49.366;2023-05-10T12:59:30;20.60;19.30
67196;DHT22;54122;53.538;49.366;2023-05-10T13:01:57;20.70;19.50
67196;DHT22;54122;53.538;49.366;2023-05-10T13:04:24;20.80;19.50
67196;DHT22;54122;53.538;49.366;2023-05-10T13:06:50;20.90;19.40
67196;DHT22;54122;53.538;49.366;2023-05-10T13:09:17;20.80;18.70
67196;DHT22;54122;53.538;49.366;2023-05-10T13:12:02;20.70;18.80
67196;DHT22;54122;53.538;49.366;2023-05-10T13:14:29;20.60;19.10
67196;DHT22;54122;53.538;49.366;2023-05-10T13:16:56;20.50;19.30
67196;DHT22;54122;53.538;49.366;2023-05-10T13:19:23;20.50;19.20
67196;DHT22;54122;53.538;49.366;2023-05-10T13:21:49;20.40;19.30
67196;DHT22;54122;53.538;49.366;2023-05-10T13:24:16;20.40;19.20
67196;DHT22;54122;53.538;49.366;2023-05-10T13:26:43;20.50;19.10
67196;DHT22;54122;53.538;49.366;2023-05-10T13:29:09;20.50;19.30
67196;DHT22;54122;53.538;49.366;2023-05-10T13:31:35;20.60;19.30
67196;DHT22;54122;53.538;49.366;2023-05-10T13:34:04;20.50;19.40
67196;DHT22;54122;53.538;49.366;2023-05-10T13:36:31;20.50;19.70
67196;DHT22;54122;53.538;49.366;2023-05-10T13:38:57;20.40;19.50
67196;DHT22;54122;53.538;49.366;2023-05-10T13:41:23;20.40;19.90
67196;DHT22;54122;53.538;49.366;2023-05-10T13:43:49;20.30;19.40
67196;DHT22;54122;53.538;49.366;2023-05-10T13:46:16;20.30;19.70
67196;DHT22;54122;53.538;49.366;2023-05-10T13:48:42;20.30;19.70
67196;DHT22;54122;53.538;49.366;2023-05-10T13:51:08;20.40;19.80
67196;DHT22;54122;53.538;49.366;2023-05-10T13:53:35;20.40;19.50
67196;DHT22;54122;53.538;49.366;2023-05-10T13:56:01;20.20;19.30
67196;DHT22;54122;53.538;49.366;2023-05-10T13:58:28;20.00;19.40
67196;DHT22;54122;53.538;49.366;2023-05-10T14:00:55;19.70;19.50
67196;DHT22;54122;53.538;49.366;2023-05-10T14:03:21;19.50;19.90
67196;DHT22;54122;53.538;49.366;2023-05-10T14:05:48;19.40;20.20
67196;DHT22;54122;53.538;49.366;2023-05-10T14:08:14;19.20;20.30
67196;DHT22;54122;53.538;49.366;2023-05-10T14:10:41;19.10;20.40
67196;DHT22;54122;53.538;49.366;2023-05-10T14:13:07;19.00;20.50
67196;DHT22;54122;53.538;49.366;2023-05-10T14:15:34;19.00;20.20
67196;DHT22;54122;53.538;49.366;2023-05-10T14:18:00;18.80;20.20
67196;DHT22;54122;53.538;49.366;2023-05-10T14:20:26;18.60;20.60
67196;DHT22;54122;53.538;49.366;2023-05-10T14:22:53;18.50;20.70
67196;DHT22;54122;53.538;49.366;2023-05-10T14:25:19;18.40;20.70
67196;DHT22;54122;53.538;49.366;2023-05-10T14:27:45;18.40;20.70
67196;DHT22;54122;53.538;49.366;2023-05-10T14:30:11;18.30;21.10
67196;DHT22;54122;53.538;49.366;2023-05-10T14:32:38;18.40;21.10
67196;DHT22;54122;53.538;49.366;2023-05-10T14:35:04;18.40;21.20
67196;DHT22;54122;53.538;49.366;2023-05-10T14:37:31;18.40;21.10
67196;DHT22;54122;53.538;49.366;2023-05-10T14:39:58;18.40;21.10
67196;DHT22;54122;53.538;49.366;2023-05-10T14:42:24;18.30;21.30
67196;DHT22;54122;53.538;49.366;2023-05-10T14:44:50;18.30;21.50
67196;DHT22;54122;53.538;49.366;2023-05-10T14:47:17;18.30;21.30
67196;DHT22;54122;53.538;49.366;2023-05-10T14:49:43;18.20;21.50
67196;DHT22;54122;53.538;49.366;2023-05-10T14:52:09;18.10;21.50
67196;DHT22;54122;53.538;49.366;2023-05-10T14:54:35;18.00;21.80
67196;DHT22;54122;53.538;49.366;2023-05-10T14:57:02;18.00;22.00
67196;DHT22;54122;53.538;49.366;2023-05-10T14:59:28;17.90;22.30
67196;DHT22;54122;53.538;49.366;2023-05-10T15:01:54;17.90;22.50
67196;DHT22;54122;53.538;49.366;2023-05-10T15:04:20;17.70;22.70
67196;DHT22;54122;53.538;49.366;2023-05-10T15:06:47;17.70;22.80
67196;DHT22;54122;53.538;49.366;2023-05-10T15:09:13;17.60;22.70
67196;DHT22;54122;53.538;49.366;2023-05-10T15:11:39;17.50;22.90
67196;DHT22;54122;53.538;49.366;2023-05-10T15:14:05;17.50;23.10
67196;DHT22;54122;53.538;49.366;2023-05-10T15:16:32;17.30;23.00
67196;DHT22;54122;53.538;49.366;2023-05-10T15:18:58;17.30;23.20
67196;DHT22;54122;53.538;49.366;2023-05-10T15:21:24;17.20;23.30
67196;DHT22;54122;53.538;49.366;2023-05-10T15:23:51;17.10;23.50
67196;DHT22;54122;53.538;49.366;2023-05-10T15:26:17;17.10;23.80
67196;DHT22;54122;53.538;49.366;2023-05-10T15:28:43;17.00;24.00
67196;DHT22;54122;53.538;49.366;2023-05-10T15:31:09;16.90;24.00
67196;DHT22;54122;53.538;49.366;2023-05-10T15:33:37;16.80;24.20
67196;DHT22;54122;53.538;49.366;2023-05-10T15:36:04;16.80;24.30
67196;DHT22;54122;53.538;49.366;2023-05-10T15:38:31;16.70;24.50
67196;DHT22;54122;53.538;49.366;2023-05-10T15:40:57;16.60;24.50
67196;DHT22;54122;53.538;49.366;2023-05-10T15:43:24;16.50;24.60
67196;DHT22;54122;53.538;49.366;2023-05-10T15:45:50;16.40;24.70
67196;DHT22;54122;53.538;49.366;2023-05-10T15:48:16;16.30;24.90
67196;DHT22;54122;53.538;49.366;2023-05-10T15:50:42;16.20;25.00
67196;DHT22;54122;53.538;49.366;2023-05-10T15:53:09;16.10;25.30
67196;DHT22;54122;53.538;49.366;2023-05-10T15:55:35;16.00;25.30
67196;DHT22;54122;53.538;49.366;2023-05-10T15:58:02;16.00;25.60
67196;DHT22;54122;53.538;49.366;2023-05-10T16:00:28;15.90;25.80
67196;DHT22;54122;53.538;49.366;2023-05-10T16:02:55;15.80;25.90
67196;DHT22;54122;53.538;49.366;2023-05-10T16:05:21;15.70;26.10
67196;DHT22;54122;53.538;49.366;2023-05-10T16:07:47;15.60;26.30
67196;DHT22;54122;53.538;49.366;2023-05-10T16:10:14;15.60;26.50